createdAt,value
2018-03-23T00:08:53.332Z,1.50
2018-03-23T00:11:23.800Z,1.40
2018-03-23T00:13:56.684Z,1.50
2018-03-23T00:16:28.230Z,1.50
2018-03-23T00:19:12.625Z,1.80
2018-03-23T00:21:43.640Z,1.70
2018-03-23T00:24:16.730Z,1.50
2018-03-23T00:26:47.460Z,1.50
2018-03-23T00:29:19.116Z,1.70
2018-03-23T00:31:50.630Z,1.90
2018-03-23T00:34:20.920Z,1.80
2018-03-23T00:36:52.516Z,1.70
2018-03-23T00:39:23.433Z,1.80
2018-03-23T00:41:54.355Z,2.00
2018-03-23T00:44:26.889Z,1.70
2018-03-23T00:46:57.636Z,1.60
2018-03-23T00:49:28.519Z,1.50
2018-03-23T00:52:00.421Z,1.70
2018-03-23T00:54:32.126Z,1.60
2018-03-23T00:57:03.672Z,1.50
2018-03-23T00:59:34.229Z,1.50
2018-03-23T01:02:05.356Z,1.40
2018-03-23T01:04:36.776Z,1.50
2018-03-23T01:07:08.433Z,1.70
2018-03-23T01:09:38.929Z,1.70
2018-03-23T01:12:09.552Z,1.70
2018-03-23T01:14:40.721Z,1.60
2018-03-23T01:17:12.193Z,1.60
2018-03-23T01:19:44.136Z,1.60
2018-03-23T01:22:15.771Z,1.70
2018-03-23T01:24:47.423Z,2.00
2018-03-23T01:27:18.995Z,2.00
2018-03-23T01:29:51.187Z,2.00
2018-03-23T01:32:22.040Z,2.10
2018-03-23T01:34:53.217Z,2.00
2018-03-23T01:37:23.986Z,2.00
2018-03-23T01:39:54.416Z,2.00
2018-03-23T01:42:25.012Z,2.10
2018-03-23T01:44:56.654Z,2.30
2018-03-23T01:47:27.275Z,2.00
2018-03-23T01:49:57.644Z,1.90
2018-03-23T01:52:28.632Z,1.80
2018-03-23T01:54:59.542Z,1.90
2018-03-23T01:57:30.056Z,1.90
2018-03-23T02:00:02.491Z,2.10
2018-03-23T02:02:33.375Z,2.10
2018-03-23T02:05:03.888Z,2.10
2018-03-23T02:07:34.853Z,1.90
2018-03-23T02:10:06.994Z,1.90
2018-03-23T02:12:37.524Z,2.20
2018-03-23T02:15:08.182Z,2.30
2018-03-23T02:17:38.820Z,2.00
2018-03-23T02:20:09.146Z,1.70
2018-03-23T02:22:40.114Z,1.90
2018-03-23T02:25:10.620Z,1.90
2018-03-23T02:27:42.064Z,1.40
2018-03-23T02:30:13.252Z,1.40
2018-03-23T02:32:43.918Z,1.50
2018-03-23T02:35:14.521Z,1.50
2018-03-23T02:37:45.177Z,1.70
2018-03-23T02:40:16.348Z,1.90
2018-03-23T02:42:47.220Z,2.00
2018-03-23T02:45:18.519Z,2.10
2018-03-23T02:47:49.200Z,2.20
2018-03-23T02:50:20.069Z,1.80
2018-03-23T02:52:50.427Z,1.50
2018-03-23T02:55:21.455Z,1.80
2018-03-23T02:57:52.861Z,1.80
2018-03-23T03:00:24.243Z,1.80
2018-03-23T03:02:54.795Z,1.80
2018-03-23T03:05:26.461Z,1.70
2018-03-23T03:07:57.414Z,1.70
2018-03-23T03:10:28.675Z,1.70
2018-03-23T03:12:59.589Z,1.60
2018-03-23T03:15:30.605Z,1.60
2018-03-23T03:18:01.660Z,1.10
2018-03-23T03:20:32.633Z,0.90
2018-03-23T03:23:04.041Z,1.00
2018-03-23T03:25:34.684Z,1.00
2018-03-23T03:28:05.726Z,1.00
2018-03-23T03:30:36.475Z,1.00
2018-03-23T03:33:06.990Z,1.10
2018-03-23T03:35:37.648Z,1.10
2018-03-23T03:38:08.340Z,1.30
2018-03-23T03:40:38.922Z,1.40
2018-03-23T03:43:17.856Z,1.40
2018-03-23T03:45:49.271Z,1.40
2018-03-23T03:48:20.229Z,1.30
2018-03-23T03:50:51.133Z,1.50
2018-03-23T03:53:22.503Z,1.50
2018-03-23T03:55:53.239Z,1.70
2018-03-23T03:58:24.058Z,1.80
2018-03-23T04:00:55.894Z,1.70
2018-03-23T04:03:27.204Z,1.50
2018-03-23T04:05:58.578Z,1.40
2018-03-23T04:08:29.432Z,1.40
2018-03-23T04:11:00.157Z,1.10
2018-03-23T04:13:32.380Z,1.20
2018-03-23T04:16:11.306Z,1.60
2018-03-23T04:18:42.656Z,1.60
2018-03-23T04:21:13.352Z,1.60
2018-03-23T04:23:44.535Z,1.70
2018-03-23T04:26:15.193Z,1.50
2018-03-23T04:28:45.522Z,1.70
2018-03-23T04:31:16.488Z,1.80
2018-03-23T04:33:48.188Z,1.60
2018-03-23T04:36:19.418Z,1.80
2018-03-23T04:38:51.054Z,1.80
2018-03-23T04:41:21.755Z,1.80
2018-03-23T04:43:52.185Z,2.00
2018-03-23T04:46:23.164Z,2.00
2018-03-23T04:48:54.822Z,1.80
2018-03-23T04:51:25.346Z,1.80
2018-03-23T04:53:56.209Z,1.80
2018-03-23T04:56:27.200Z,1.80
2018-03-23T04:58:57.572Z,1.60
2018-03-23T05:01:28.044Z,1.50
2018-03-23T05:03:59.599Z,1.40
2018-03-23T05:06:30.483Z,1.50
2018-03-23T05:09:01.191Z,1.30
2018-03-23T05:14:07.106Z,1.10
2018-03-23T05:16:37.633Z,1.00
2018-03-23T05:19:09.313Z,1.00
2018-03-23T05:21:40.737Z,1.10
2018-03-23T05:24:12.533Z,1.20
2018-03-23T05:26:43.447Z,1.20
2018-03-23T05:29:14.918Z,0.80
2018-03-23T05:31:45.452Z,0.80
2018-03-23T05:34:16.370Z,0.90
2018-03-23T05:36:46.963Z,1.20
2018-03-23T05:39:18.123Z,1.20
2018-03-23T05:41:48.684Z,1.40
2018-03-23T05:44:19.533Z,1.30
2018-03-23T05:46:51.336Z,1.00
2018-03-23T05:49:22.778Z,1.10
2018-03-23T05:51:53.224Z,1.20
2018-03-23T05:54:24.450Z,1.50
2018-03-23T05:56:55.136Z,1.70
2018-03-23T05:59:26.781Z,1.70
2018-03-23T06:02:00.624Z,1.80
2018-03-23T06:04:32.614Z,1.90
2018-03-23T06:07:03.778Z,1.30
2018-03-23T06:09:34.683Z,1.40
2018-03-23T06:12:06.108Z,1.50
2018-03-23T06:14:44.850Z,1.90
2018-03-23T06:17:27.876Z,2.20
2018-03-23T06:20:11.927Z,2.10
2018-03-23T06:22:53.144Z,2.20
2018-03-23T06:25:34.017Z,2.40
2018-03-23T06:28:05.286Z,2.40
2018-03-23T06:30:37.088Z,2.40
2018-03-23T06:36:37.209Z,2.80
2018-03-23T06:39:08.412Z,2.70
2018-03-23T06:41:54.550Z,2.80
2018-03-23T06:44:26.260Z,2.60
2018-03-23T06:46:57.379Z,2.50
2018-03-23T06:49:28.281Z,2.20
2018-03-23T06:55:36.574Z,2.50
2018-03-23T06:58:08.352Z,2.50
2018-03-23T07:00:39.001Z,1.80
2018-03-23T07:03:13.292Z,1.70
2018-03-23T07:05:47.846Z,1.40
2018-03-23T07:08:20.181Z,1.50
2018-03-23T07:10:50.909Z,1.50
2018-03-23T07:13:22.000Z,1.90
2018-03-23T07:15:54.202Z,2.20
2018-03-23T07:18:24.900Z,2.20
2018-03-23T07:20:55.747Z,2.20
2018-03-23T07:23:26.646Z,2.10
2018-03-23T07:25:57.572Z,2.00
2018-03-23T07:28:39.610Z,2.00
2018-03-23T07:31:15.709Z,2.00
2018-03-23T07:33:51.181Z,2.10
2018-03-23T07:36:30.406Z,2.10
2018-03-23T07:39:03.260Z,2.30
2018-03-23T07:41:43.561Z,2.30
2018-03-23T07:44:18.687Z,2.30
2018-03-23T07:46:56.007Z,2.20
2018-03-23T07:49:34.982Z,2.20
2018-03-23T07:52:10.207Z,2.20
2018-03-23T07:54:43.723Z,2.50
2018-03-23T07:57:14.928Z,2.70
2018-03-23T07:59:46.100Z,2.80
2018-03-23T08:02:17.847Z,2.60
2018-03-23T08:04:48.566Z,2.70
2018-03-23T08:07:19.309Z,2.80
2018-03-23T08:09:50.953Z,3.10
2018-03-23T08:12:22.591Z,3.00
2018-03-23T08:14:54.564Z,2.60
2018-03-23T08:17:29.136Z,2.60
2018-03-23T08:20:10.871Z,2.30
2018-03-23T08:22:42.679Z,2.30
2018-03-23T08:25:17.810Z,2.20
2018-03-23T08:28:05.108Z,1.90
2018-03-23T08:30:38.175Z,2.00
2018-03-23T08:33:08.944Z,2.30
2018-03-23T08:35:40.119Z,2.30
2018-03-23T08:38:15.572Z,2.40
2018-03-23T08:40:53.489Z,2.40
2018-03-23T08:43:27.856Z,1.90
2018-03-23T08:46:01.051Z,1.90
2018-03-23T08:48:56.230Z,1.40
2018-03-23T08:51:26.874Z,1.60
2018-03-23T08:53:58.329Z,1.60
2018-03-23T08:56:28.673Z,1.50
2018-03-23T08:58:59.388Z,1.60
2018-03-23T09:01:30.499Z,1.80
2018-03-23T09:04:02.493Z,1.90
2018-03-23T09:06:33.306Z,2.10
2018-03-23T09:09:04.084Z,2.00
2018-03-23T09:11:38.967Z,2.50
2018-03-23T09:14:14.751Z,2.50
2018-03-23T09:16:46.626Z,2.40
2018-03-23T09:19:18.307Z,2.70
2018-03-23T09:21:52.745Z,2.70
2018-03-23T09:24:28.344Z,2.50
2018-03-23T09:27:26.650Z,2.80
2018-03-23T09:29:57.969Z,3.30
2018-03-23T09:32:30.760Z,3.30
2018-03-23T09:35:02.290Z,3.70
2018-03-23T09:37:34.540Z,2.70
2018-03-23T09:40:06.902Z,2.50
2018-03-23T09:42:43.630Z,2.70
2018-03-23T09:45:15.372Z,2.40
2018-03-23T09:47:49.275Z,2.80
2018-03-23T09:50:21.760Z,2.80
2018-03-23T09:53:04.861Z,2.60
2018-03-23T09:55:36.678Z,1.90
2018-03-23T09:58:08.546Z,2.20
2018-03-23T10:00:40.994Z,2.10
2018-03-23T10:03:27.907Z,2.10
2018-03-23T10:05:58.615Z,1.80
2018-03-23T10:08:50.093Z,1.90
2018-03-23T10:11:21.349Z,2.20
2018-03-23T10:13:52.243Z,2.30
2018-03-23T10:16:23.155Z,2.50
2018-03-23T10:18:54.797Z,2.40
2018-03-23T10:21:29.274Z,2.00
2018-03-23T10:24:01.201Z,2.40
2018-03-23T10:26:49.285Z,2.40
2018-03-23T10:29:22.480Z,2.80
2018-03-23T10:31:54.829Z,3.60
2018-03-23T10:34:54.722Z,4.20
2018-03-23T10:37:44.416Z,4.20
2018-03-23T10:43:24.996Z,3.10
2018-03-23T10:45:58.668Z,2.70
2018-03-23T10:49:01.714Z,3.10
2018-03-23T10:51:32.838Z,3.40
2018-03-23T10:54:03.514Z,3.70
2018-03-23T10:56:35.339Z,4.20
2018-03-23T10:59:08.812Z,4.30
2018-03-23T11:01:45.951Z,5.20
2018-03-23T11:04:28.842Z,5.20
2018-03-23T11:10:41.810Z,5.90
2018-03-23T11:13:18.071Z,5.80
2018-03-23T11:15:49.924Z,6.30
2018-03-23T11:18:22.137Z,6.40
2018-03-23T11:20:54.193Z,6.70
2018-03-23T11:23:47.160Z,6.60
2018-03-23T11:29:57.143Z,5.30
2018-03-23T11:32:28.041Z,6.00
2018-03-23T11:34:58.969Z,6.20
2018-03-23T11:38:51.998Z,6.20
2018-03-23T11:41:26.011Z,6.40
2018-03-23T11:43:59.105Z,6.20
2018-03-23T11:46:31.587Z,6.80
2018-03-23T11:49:59.093Z,6.70
2018-03-23T11:56:23.827Z,7.40
2018-03-23T11:58:55.201Z,7.20
2018-03-23T12:01:31.524Z,7.10
2018-03-23T12:04:06.762Z,6.80
2018-03-23T12:06:41.412Z,7.10
2018-03-23T12:09:41.105Z,7.10
2018-03-23T12:12:13.452Z,8.20
2018-03-23T12:14:49.339Z,8.10
2018-03-23T12:17:29.085Z,8.10
2018-03-23T12:20:00.540Z,8.90
2018-03-23T12:22:32.533Z,9.10
2018-03-23T12:25:04.574Z,9.00
2018-03-23T12:28:12.044Z,9.30
2018-03-23T12:30:57.377Z,9.90
2018-03-23T12:33:28.796Z,11.00
2018-03-23T12:36:07.391Z,10.90
2018-03-23T12:38:39.845Z,10.80
2018-03-23T12:41:18.164Z,11.00
2018-03-23T12:44:28.569Z,10.90
2018-03-23T12:47:06.406Z,10.20
2018-03-23T12:49:40.218Z,10.30
2018-03-23T12:52:12.040Z,10.30
2018-03-23T12:54:53.058Z,10.00
2018-03-23T13:01:43.746Z,9.80
2018-03-23T13:04:21.358Z,8.70
2018-03-23T13:06:52.093Z,8.60
2018-03-23T13:09:23.414Z,8.80
2018-03-23T13:11:54.533Z,9.00
2018-03-23T13:14:44.027Z,8.60
2018-03-23T13:17:15.906Z,8.30
2018-03-23T14:48:00.026Z,8.20
2018-03-23T14:50:34.381Z,6.70
2018-03-23T14:53:06.092Z,7.00
2018-03-23T14:55:38.912Z,7.20
2018-03-23T14:58:11.365Z,7.00
2018-03-23T15:00:41.721Z,7.10
2018-03-23T15:03:13.073Z,7.10
2018-03-23T15:05:45.740Z,7.10
2018-03-23T15:08:17.154Z,7.00
2018-03-23T15:10:49.006Z,7.00
2018-03-23T15:13:22.253Z,7.10
2018-03-23T15:17:08.605Z,7.00
2018-03-23T15:19:41.104Z,7.10
2018-03-23T15:22:13.820Z,7.00
2018-03-23T15:24:48.748Z,5.80
2018-03-23T15:27:36.188Z,5.80
2018-03-23T15:30:29.554Z,5.20
2018-03-23T15:33:02.646Z,5.10
2018-03-23T15:35:34.526Z,5.30
2018-03-23T15:38:32.290Z,5.30
2018-03-23T15:41:19.841Z,5.50
2018-03-23T15:47:34.912Z,5.60
2018-03-23T15:50:06.377Z,5.50
2018-03-23T15:52:38.243Z,5.60
2018-03-23T15:55:10.240Z,5.50
2018-03-23T15:57:46.702Z,5.50
2018-03-23T16:00:17.918Z,5.50
2018-03-23T16:02:51.116Z,5.50
2018-03-23T16:05:30.348Z,5.60
2018-03-23T16:08:02.099Z,5.70
2018-03-23T16:10:33.785Z,5.70
2018-03-23T16:13:08.760Z,5.70
2018-03-23T16:15:40.418Z,5.60
2018-03-23T16:18:12.987Z,5.40
2018-03-23T16:20:44.025Z,5.40
2018-03-23T16:23:15.302Z,5.60
2018-03-23T16:25:45.675Z,5.70
2018-03-23T16:28:17.707Z,5.70
2018-03-23T16:31:20.646Z,5.70
2018-03-23T16:33:56.253Z,5.70
2018-03-23T16:36:32.702Z,5.40
2018-03-23T16:39:10.828Z,5.30
2018-03-23T16:41:43.118Z,5.30
2018-03-23T16:44:28.392Z,5.20
2018-03-23T16:47:00.006Z,5.40
2018-03-23T16:49:30.877Z,5.10
2018-03-23T16:52:45.664Z,4.90
2018-03-23T16:55:19.304Z,4.90
2018-03-23T16:57:50.298Z,5.00
2018-03-23T17:00:33.395Z,5.10
2018-03-23T17:03:08.466Z,5.00
2018-03-23T17:05:44.985Z,5.00
2018-03-23T17:08:18.310Z,4.90
2018-03-23T17:11:04.828Z,4.90
2018-03-23T17:13:54.857Z,4.90
2018-03-23T17:16:33.684Z,4.80
2018-03-23T17:19:19.186Z,4.80
2018-03-23T17:21:53.026Z,4.70
2018-03-23T17:24:25.050Z,4.70
2018-03-23T17:26:56.840Z,4.60
2018-03-23T17:29:28.379Z,4.80
2018-03-23T17:31:59.346Z,4.80
2018-03-23T17:34:36.486Z,4.70
2018-03-23T17:40:15.544Z,4.40
2018-03-23T17:42:48.178Z,4.30
2018-03-23T17:45:19.463Z,4.30
2018-03-23T17:47:51.511Z,4.40
2018-03-23T17:50:24.116Z,4.60
2018-03-23T17:52:56.801Z,4.80
2018-03-23T17:55:29.217Z,4.90
2018-03-23T17:58:00.604Z,4.60
2018-03-23T18:00:31.482Z,4.60
2018-03-23T18:03:02.786Z,4.50
2018-03-23T18:05:50.532Z,4.20
2018-03-23T18:08:21.684Z,3.90
2018-03-23T18:11:04.595Z,3.70
2018-03-23T18:13:37.416Z,3.70
2018-03-23T18:16:12.615Z,3.60
2018-03-23T18:19:01.986Z,3.60
2018-03-23T18:21:43.808Z,3.70
2018-03-23T18:27:51.572Z,4.00
2018-03-23T18:30:24.531Z,4.10
2018-03-23T18:32:55.769Z,4.20
2018-03-23T18:35:26.876Z,4.10
2018-03-23T18:37:57.349Z,3.80
2018-03-23T18:40:29.329Z,3.80
2018-03-23T18:43:02.067Z,3.80
2018-03-23T18:45:35.422Z,3.80
2018-03-23T18:48:06.549Z,3.70
2018-03-23T18:50:38.018Z,3.70
2018-03-23T18:53:09.158Z,3.70
2018-03-23T18:55:40.716Z,3.80
2018-03-23T18:58:12.478Z,3.90
2018-03-23T19:00:44.304Z,4.00
2018-03-23T19:03:17.021Z,4.40
2018-03-23T19:05:48.578Z,4.50
2018-03-23T19:08:20.660Z,4.50
2018-03-23T19:12:29.576Z,4.20
2018-03-23T19:15:00.608Z,4.30
2018-03-23T19:18:01.355Z,3.50
2018-03-23T19:20:55.356Z,3.70
2018-03-23T19:23:28.434Z,3.60
2018-03-23T19:26:01.135Z,4.10
2018-03-23T19:28:31.732Z,4.10
2018-03-23T19:31:03.667Z,4.00
2018-03-23T19:33:36.395Z,3.90
2018-03-23T19:36:08.953Z,3.90
2018-03-23T19:38:40.729Z,3.90
2018-03-23T19:41:13.705Z,3.90
2018-03-23T19:43:45.732Z,3.60
2018-03-23T19:46:24.484Z,3.50
2018-03-23T19:49:23.935Z,3.60
2018-03-23T19:52:07.011Z,3.50
2018-03-23T19:54:39.612Z,3.50
2018-03-23T19:57:10.276Z,3.50
2018-03-23T19:59:42.074Z,3.40
2018-03-23T20:02:14.753Z,3.80
2018-03-23T20:04:45.965Z,3.80
2018-03-23T20:07:17.333Z,4.00
2018-03-23T20:09:52.887Z,4.10
2018-03-23T20:12:28.926Z,3.80
2018-03-23T20:15:13.369Z,3.70
2018-03-23T20:17:48.182Z,3.70
2018-03-23T20:20:23.638Z,3.80
2018-03-23T20:22:57.072Z,3.90
2018-03-23T20:25:28.975Z,4.00
2018-03-23T20:28:17.516Z,3.90
2018-03-23T20:30:47.938Z,4.00
2018-03-23T20:33:30.985Z,3.60
2018-03-23T20:36:02.512Z,3.30
2018-03-23T20:38:35.008Z,3.10
2018-03-23T20:41:07.045Z,3.10
2018-03-23T20:43:38.106Z,3.10
2018-03-23T20:46:08.894Z,3.20
2018-03-23T20:48:40.150Z,3.40
2018-03-23T20:51:10.741Z,3.40
2018-03-23T20:53:41.093Z,3.50
2018-03-23T20:56:13.425Z,3.70
2018-03-23T20:58:44.826Z,3.60
2018-03-23T21:01:15.571Z,3.60
2018-03-23T21:03:47.966Z,3.70
2018-03-23T21:06:21.528Z,3.60
2018-03-23T21:08:54.228Z,3.60
2018-03-23T21:11:25.689Z,3.60
2018-03-23T21:13:57.115Z,3.30
2018-03-23T21:16:27.433Z,3.30
2018-03-23T21:18:58.146Z,3.30
2018-03-23T21:21:29.033Z,2.90
2018-03-23T21:24:00.035Z,2.90
2018-03-23T21:26:31.219Z,3.10
2018-03-23T21:29:01.750Z,3.20
2018-03-23T21:31:32.680Z,3.30
2018-03-23T21:34:07.605Z,3.20
2018-03-23T21:36:39.524Z,3.30
2018-03-23T21:39:14.567Z,2.80
2018-03-23T21:41:46.869Z,2.80
2018-03-23T21:44:18.793Z,2.70
2018-03-23T21:46:51.337Z,2.70
2018-03-23T21:49:22.581Z,2.40
2018-03-23T21:51:56.198Z,2.20
2018-03-23T21:54:26.647Z,2.10
2018-03-23T21:56:57.321Z,2.10
2018-03-23T21:59:28.844Z,2.20
2018-03-23T22:02:00.582Z,2.70
2018-03-23T22:04:32.476Z,2.90
2018-03-23T22:07:03.892Z,2.90
2018-03-23T22:09:34.554Z,2.90
2018-03-23T22:12:06.077Z,2.50
2018-03-23T22:14:45.089Z,2.50
2018-03-23T22:17:16.023Z,2.40
2018-03-23T22:19:48.089Z,2.50
2018-03-23T22:22:18.827Z,2.60
2018-03-23T22:25:02.184Z,2.20
2018-03-23T22:27:33.402Z,2.10
2018-03-23T22:30:03.773Z,2.10
2018-03-23T22:32:35.129Z,2.30
2018-03-23T22:35:06.226Z,2.30
2018-03-23T22:37:39.094Z,2.60
2018-03-23T22:40:10.041Z,2.60
2018-03-23T22:42:42.032Z,2.50
2018-03-23T22:45:14.445Z,2.70
2018-03-23T22:47:45.508Z,2.60
2018-03-23T22:50:16.198Z,2.70
2018-03-23T22:52:47.613Z,2.70
2018-03-23T22:55:19.484Z,2.70
2018-03-23T22:57:51.525Z,2.70
2018-03-23T23:00:29.693Z,2.70
2018-03-23T23:03:00.690Z,2.50
2018-03-23T23:12:43.750Z,1.80
2018-03-23T23:15:15.246Z,2.00
2018-03-23T23:17:45.619Z,2.00
2018-03-23T23:20:16.286Z,2.20
2018-03-23T23:22:47.174Z,2.00
2018-03-23T23:25:18.188Z,1.70
2018-03-23T23:27:50.528Z,1.20
2018-03-23T23:30:25.136Z,1.20
2018-03-23T23:32:55.937Z,1.10
2018-03-23T23:35:26.282Z,1.10
2018-03-23T23:37:56.677Z,1.30
2018-03-23T23:40:27.366Z,1.40
2018-03-23T23:42:58.794Z,1.20
2018-03-23T23:45:30.226Z,1.40
2018-03-23T23:48:00.728Z,1.40
2018-03-23T23:50:31.757Z,1.80
2018-03-23T23:53:02.396Z,1.80
2018-03-23T23:55:34.355Z,1.70
2018-03-23T23:58:04.988Z,1.40
